Time;durP1;ratioP1;P1;durP2;ratioP2;P2;SDS_P1;SDS_P2;PMS_P1;PMS_P2;Temp;Humidity;BMP_temperature;BMP_pressure;BME280_temperature;BME280_humidity;BME280_pressure;Samples;Min_cycle;Max_cycle;Signal;HPM_P1;HPM_P2
2022/08/01 00:01:05;;;;;;;3.33;2.92;;;;;;;;;;5083307;27;20242;-52
2022/08/01 00:03:32;;;;;;;3.08;2.88;;;;;;;;;;5080530;27;20241;-52
2022/08/01 00:06:00;;;;;;;3.45;3.22;;;;;;;;;;5081716;27;20326;-53
2022/08/01 00:08:26;;;;;;;3.30;3.03;;;;;;;;;;5081309;27;20716;-53
2022/08/01 00:10:52;;;;;;;3.53;3.22;;;;;;;;;;5075535;27;20242;-52
2022/08/01 00:13:19;;;;;;;3.92;3.63;;;;;;;;;;5091352;27;20224;-53
2022/08/01 00:15:45;;;;;;;3.63;3.33;;;;;;;;;;5078827;27;20253;-53
2022/08/01 00:18:11;;;;;;;3.53;3.22;;;;;;;;;;5089496;27;20233;-52
2022/08/01 00:20:37;;;;;;;4.30;3.90;;;;;;;;;;5081450;27;20230;-53
2022/08/01 00:23:05;;;;;;;3.55;3.35;;;;;;;;;;5081533;27;20338;-53
2022/08/01 00:25:32;;;;;;;3.55;3.25;;;;;;;;;;5082247;28;20257;-53
2022/08/01 00:27:58;;;;;;;4.20;3.88;;;;;;;;;;5078164;27;20709;-53
2022/08/01 00:30:26;;;;;;;5.15;3.80;;;;;;;;;;5070663;27;20237;-55
2022/08/01 00:32:53;;;;;;;5.10;4.53;;;;;;;;;;5079770;27;20234;-53
2022/08/01 00:35:19;;;;;;;5.15;3.80;;;;;;;;;;5073946;28;20241;-52
2022/08/01 00:37:46;;;;;;;3.58;3.28;;;;;;;;;;5076161;27;20237;-53
2022/08/01 00:40:13;;;;;;;5.72;3.92;;;;;;;;;;5080684;27;20234;-53
2022/08/01 00:42:41;;;;;;;3.90;3.60;;;;;;;;;;5079856;27;20226;-52
2022/08/01 00:45:08;;;;;;;4.25;3.90;;;;;;;;;;5077036;27;21002;-52
2022/08/01 00:47:34;;;;;;;4.70;4.30;;;;;;;;;;5073544;27;20719;-52
2022/08/01 00:50:00;;;;;;;3.92;3.63;;;;;;;;;;5086097;27;20324;-53
2022/08/01 00:52:27;;;;;;;4.07;3.78;;;;;;;;;;5075827;27;20226;-54
2022/08/01 00:54:53;;;;;;;3.78;3.45;;;;;;;;;;5089393;27;20233;-53
2022/08/01 00:57:22;;;;;;;4.22;3.78;;;;;;;;;;5082076;28;20601;-53
2022/08/01 00:59:48;;;;;;;4.55;4.15;;;;;;;;;;5078033;27;20223;-53
2022/08/01 01:02:14;;;;;;;4.90;4.47;;;;;;;;;;5078951;27;20230;-53
2022/08/01 01:04:41;;;;;;;4.07;3.78;;;;;;;;;;5087564;27;20236;-53
2022/08/01 01:07:10;;;;;;;4.00;3.70;;;;;;;;;;5082594;27;20241;-53
2022/08/01 01:09:40;;;;;;;3.92;3.67;;;;;;;;;;5066516;27;20223;-53
2022/08/01 01:12:22;;;;;;;4.07;3.83;;;;;;;;;;5076816;27;20231;-54
2022/08/01 01:14:53;;;;;;;4.18;3.88;;;;;;;;;;5084817;27;20230;-53
2022/08/01 01:17:22;;;;;;;3.92;3.63;;;;;;;;;;5078440;28;20235;-53
2022/08/01 01:19:52;;;;;;;4.30;4.00;;;;;;;;;;5082206;27;20227;-53
2022/08/01 01:22:23;;;;;;;4.40;3.95;;;;;;;;;;5078733;27;20226;-53
2022/08/01 01:24:59;;;;;;;3.90;3.50;;;;;;;;;;5086660;28;20227;-54
2022/08/01 01:27:29;;;;;;;4.72;4.32;;;;;;;;;;5078160;27;20711;-52
2022/08/01 01:29:59;;;;;;;4.30;4.00;;;;;;;;;;5077415;27;20231;-53
2022/08/01 01:32:29;;;;;;;4.45;4.05;;;;;;;;;;5075507;27;20619;-53
2022/08/01 01:34:55;;;;;;;3.72;3.53;;;;;;;;;;5074989;27;20462;-52
2022/08/01 01:37:23;;;;;;;4.63;4.22;;;;;;;;;;5079543;27;20242;-52
2022/08/01 01:39:51;;;;;;;4.72;4.32;;;;;;;;;;5079992;27;20236;-53
2022/08/01 01:42:18;;;;;;;3.80;3.50;;;;;;;;;;5077023;27;20230;-52
2022/08/01 01:44:45;;;;;;;3.92;3.67;;;;;;;;;;5078884;27;20226;-52
2022/08/01 01:47:13;;;;;;;4.00;3.78;;;;;;;;;;5077896;27;20259;-52
2022/08/01 01:49:40;;;;;;;4.43;4.03;;;;;;;;;;5078392;27;20315;-53
2022/08/01 01:52:07;;;;;;;3.47;3.20;;;;;;;;;;5078561;27;20254;-54
2022/08/01 01:54:35;;;;;;;4.47;4.07;;;;;;;;;;5082217;27;20231;-53
2022/08/01 01:57:04;;;;;;;4.13;3.83;;;;;;;;;;5086309;27;20734;-52
2022/08/01 01:59:32;;;;;;;3.90;3.60;;;;;;;;;;5075250;27;20222;-53
2022/08/01 02:02:00;;;;;;;4.40;3.72;;;;;;;;;;5089057;27;20641;-54
2022/08/01 02:04:28;;;;;;;4.68;4.28;;;;;;;;;;5083034;27;20258;-53
2022/08/01 02:06:56;;;;;;;5.22;4.28;;;;;;;;;;5081085;27;20239;-52
2022/08/01 02:09:24;;;;;;;4.38;3.95;;;;;;;;;;5072535;27;20314;-52
2022/08/01 02:11:50;;;;;;;4.70;4.22;;;;;;;;;;5078174;27;20235;-52
2022/08/01 02:14:18;;;;;;;4.47;4.18;;;;;;;;;;5080874;27;20230;-53
2022/08/01 02:16:47;;;;;;;5.10;4.70;;;;;;;;;;5080934;27;20230;-53
2022/08/01 02:19:14;;;;;;;5.10;4.60;;;;;;;;;;5084990;27;20242;-53
2022/08/01 02:21:45;;;;;;;4.55;4.15;;;;;;;;;;5083727;27;20322;-53
2022/08/01 02:24:14;;;;;;;4.88;4.45;;;;;;;;;;5081817;27;20230;-53
2022/08/01 02:26:42;;;;;;;5.22;4.82;;;;;;;;;;5078966;27;20287;-53
2022/08/01 02:29:11;;;;;;;5.53;5.13;;;;;;;;;;5082658;27;20238;-53
2022/08/01 02:31:40;;;;;;;4.88;4.55;;;;;;;;;;5077819;27;20234;-53
2022/08/01 02:34:07;;;;;;;5.13;4.72;;;;;;;;;;5081490;27;20226;-53
2022/08/01 02:36:35;;;;;;;4.20;3.88;;;;;;;;;;5090511;27;20225;-54
2022/08/01 02:39:07;;;;;;;4.80;4.35;;;;;;;;;;5086253;27;20237;-54
2022/08/01 02:41:34;;;;;;;4.70;4.32;;;;;;;;;;5082052;27;20238;-54
2022/08/01 02:44:03;;;;;;;5.20;4.80;;;;;;;;;;5080834;27;20231;-52
2022/08/01 02:46:32;;;;;;;4.97;4.57;;;;;;;;;;5084998;27;20909;-55
2022/08/01 02:49:02;;;;;;;4.80;4.32;;;;;;;;;;5092819;27;20237;-53
2022/08/01 02:51:30;;;;;;;4.60;4.30;;;;;;;;;;5085113;27;20787;-53
2022/08/01 02:53:57;;;;;;;4.82;4.43;;;;;;;;;;5083574;27;20231;-53
2022/08/01 02:56:34;;;;;;;4.25;3.95;;;;;;;;;;5080590;27;20234;-53
2022/08/01 02:59:01;;;;;;;5.32;4.93;;;;;;;;;;5075596;27;20258;-52
2022/08/01 03:01:27;;;;;;;8.25;5.53;;;;;;;;;;5087810;27;20230;-52
2022/08/01 03:03:54;;;;;;;5.25;4.75;;;;;;;;;;5085751;27;20272;-53
2022/08/01 03:06:20;;;;;;;5.78;5.20;;;;;;;;;;5087399;27;20234;-53
2022/08/01 03:08:48;;;;;;;5.45;4.35;;;;;;;;;;5075318;27;20234;-53
2022/08/01 03:11:15;;;;;;;5.35;4.90;;;;;;;;;;5079151;27;20241;-52
2022/08/01 03:13:45;;;;;;;5.40;4.82;;;;;;;;;;5083210;27;21114;-53
2022/08/01 03:16:12;;;;;;;4.65;4.25;;;;;;;;;;5086629;27;20233;-53
2022/08/01 03:18:40;;;;;;;5.22;4.82;;;;;;;;;;5087176;27;20776;-53
2022/08/01 03:21:07;;;;;;;9.63;5.78;;;;;;;;;;5085137;27;20235;-54
2022/08/01 03:23:34;;;;;;;5.65;5.18;;;;;;;;;;5078970;27;20231;-53
2022/08/01 03:26:01;;;;;;;5.45;5.03;;;;;;;;;;5077659;27;20262;-52
2022/08/01 03:28:28;;;;;;;5.00;4.60;;;;;;;;;;5082149;27;20233;-53
2022/08/01 03:30:56;;;;;;;5.32;4.82;;;;;;;;;;5083532;27;20230;-52
2022/08/01 03:33:22;;;;;;;5.00;4.60;;;;;;;;;;5081176;28;20226;-53
2022/08/01 03:35:51;;;;;;;5.45;4.93;;;;;;;;;;5087994;27;20237;-53
2022/08/01 03:38:19;;;;;;;5.72;5.22;;;;;;;;;;5079314;27;20283;-52
2022/08/01 03:40:49;;;;;;;4.78;4.22;;;;;;;;;;5081630;27;20776;-53
2022/08/01 03:43:18;;;;;;;5.03;4.53;;;;;;;;;;5081595;28;20333;-52
2022/08/01 03:45:47;;;;;;;4.63;4.22;;;;;;;;;;5083245;27;20241;-53
2022/08/01 03:48:16;;;;;;;4.63;4.22;;;;;;;;;;5073203;27;20238;-53
2022/08/01 03:50:44;;;;;;;5.20;4.70;;;;;;;;;;5078037;27;20235;-53
2022/08/01 03:53:11;;;;;;;4.28;3.97;;;;;;;;;;5079928;27;20731;-53
2022/08/01 03:55:38;;;;;;;4.82;4.53;;;;;;;;;;5084198;27;20230;-53
2022/08/01 03:58:05;;;;;;;4.78;4.38;;;;;;;;;;5086289;27;20241;-53
2022/08/01 04:00:32;;;;;;;5.43;5.03;;;;;;;;;;5076035;27;20227;-52
2022/08/01 04:02:59;;;;;;;4.30;3.97;;;;;;;;;;5080037;27;20230;-54
2022/08/01 04:05:26;;;;;;;6.53;5.03;;;;;;;;;;5086085;27;20241;-53
2022/08/01 04:07:55;;;;;;;7.25;5.50;;;;;;;;;;5083893;27;20238;-54
2022/08/01 04:10:22;;;;;;;6.13;5.50;;;;;;;;;;5081902;27;20735;-53
2022/08/01 04:12:48;;;;;;;6.35;5.78;;;;;;;;;;5082575;27;20676;-53
2022/08/01 04:15:14;;;;;;;7.18;6.47;;;;;;;;;;5085577;27;20231;-53
2022/08/01 04:17:41;;;;;;;7.97;6.30;;;;;;;;;;5073782;27;20258;-53
2022/08/01 04:20:07;;;;;;;7.50;6.40;;;;;;;;;;5083641;27;20227;-53
2022/08/01 04:22:36;;;;;;;7.50;6.75;;;;;;;;;;5082866;27;20238;-53
2022/08/01 04:25:05;;;;;;;8.90;7.15;;;;;;;;;;5082666;27;20257;-54
2022/08/01 04:27:33;;;;;;;9.18;7.15;;;;;;;;;;5087085;27;20230;-54
2022/08/01 04:29:59;;;;;;;7.90;7.10;;;;;;;;;;5075620;27;20321;-53
2022/08/01 04:32:27;;;;;;;8.90;6.25;;;;;;;;;;5083560;27;20232;-54
2022/08/01 04:34:55;;;;;;;7.22;5.68;;;;;;;;;;5087296;27;20234;-53
2022/08/01 04:37:23;;;;;;;7.70;7.00;;;;;;;;;;5083625;27;20714;-53
2022/08/01 04:39:52;;;;;;;6.93;6.13;;;;;;;;;;5081839;27;20230;-52
2022/08/01 04:42:19;;;;;;;5.80;5.30;;;;;;;;;;5083871;27;20227;-52
2022/08/01 04:44:45;;;;;;;8.20;7.25;;;;;;;;;;5083550;27;20230;-53
2022/08/01 04:47:13;;;;;;;8.52;7.82;;;;;;;;;;5081900;27;20241;-53
2022/08/01 04:49:40;;;;;;;9.05;6.90;;;;;;;;;;5080884;27;20679;-53
2022/08/01 04:52:07;;;;;;;8.48;7.60;;;;;;;;;;5077216;27;20226;-53
2022/08/01 04:54:36;;;;;;;7.65;6.85;;;;;;;;;;5081879;27;20233;-53
2022/08/01 04:57:04;;;;;;;12.43;8.70;;;;;;;;;;5082149;27;20226;-54
2022/08/01 04:59:40;;;;;;;8.23;7.50;;;;;;;;;;5080351;27;21014;-53
2022/08/01 05:02:07;;;;;;;9.82;7.72;;;;;;;;;;5083932;27;20240;-52
2022/08/01 05:04:33;;;;;;;8.65;7.70;;;;;;;;;;5081704;27;20232;-53
2022/08/01 05:07:00;;;;;;;8.68;7.93;;;;;;;;;;5084925;27;20237;-53
2022/08/01 05:09:26;;;;;;;15.95;8.52;;;;;;;;;;5081237;27;20230;-54
2022/08/01 05:11:53;;;;;;;7.05;6.38;;;;;;;;;;5081751;27;20703;-53
2022/08/01 05:14:20;;;;;;;9.43;8.63;;;;;;;;;;5080861;27;20231;-52
2022/08/01 05:16:47;;;;;;;8.32;7.00;;;;;;;;;;5082362;27;20219;-53
2022/08/01 05:19:13;;;;;;;7.63;6.55;;;;;;;;;;5077551;28;20242;-53
2022/08/01 05:21:39;;;;;;;8.23;7.53;;;;;;;;;;5079926;27;20334;-53
2022/08/01 05:24:06;;;;;;;7.88;7.22;;;;;;;;;;5080546;27;20230;-53
2022/08/01 05:26:32;;;;;;;7.95;7.22;;;;;;;;;;5083443;28;20234;-52
2022/08/01 05:28:59;;;;;;;8.63;7.72;;;;;;;;;;5081013;27;20639;-52
2022/08/01 05:31:27;;;;;;;10.20;7.38;;;;;;;;;;5075870;27;20227;-53
2022/08/01 05:33:53;;;;;;;6.70;6.20;;;;;;;;;;5080842;27;20230;-54
2022/08/01 05:36:19;;;;;;;9.10;8.20;;;;;;;;;;5084481;27;20239;-53
2022/08/01 05:38:46;;;;;;;7.93;7.22;;;;;;;;;;5081071;27;20230;-54
2022/08/01 05:41:12;;;;;;;7.13;6.50;;;;;;;;;;5084887;27;20313;-54
2022/08/01 05:43:38;;;;;;;7.75;7.05;;;;;;;;;;5075208;27;20298;-54
2022/08/01 05:46:05;;;;;;;7.65;6.95;;;;;;;;;;5087308;27;20238;-54
2022/08/01 05:48:32;;;;;;;6.70;5.65;;;;;;;;;;5075375;28;20238;-54
2022/08/01 05:50:59;;;;;;;5.63;5.13;;;;;;;;;;5078527;27;20716;-53
2022/08/01 05:53:25;;;;;;;6.97;6.38;;;;;;;;;;5078570;28;20231;-54
2022/08/01 05:55:52;;;;;;;7.03;6.38;;;;;;;;;;5079488;27;20232;-54
2022/08/01 05:58:18;;;;;;;7.75;6.15;;;;;;;;;;5082644;27;20245;-53
2022/08/01 06:00:44;;;;;;;6.07;5.47;;;;;;;;;;5076720;27;20234;-53
2022/08/01 06:03:12;;;;;;;6.05;5.53;;;;;;;;;;5078522;27;20230;-53
2022/08/01 06:05:39;;;;;;;6.95;5.55;;;;;;;;;;5074308;27;20701;-53
2022/08/01 06:08:06;;;;;;;5.70;5.20;;;;;;;;;;5078391;27;20242;-53
2022/08/01 06:10:32;;;;;;;7.50;6.70;;;;;;;;;;5071957;27;20235;-53
2022/08/01 06:13:02;;;;;;;5.35;4.95;;;;;;;;;;5081310;27;20226;-53
2022/08/01 06:15:29;;;;;;;6.22;5.47;;;;;;;;;;5079476;27;20685;-54
2022/08/01 06:17:55;;;;;;;6.50;5.20;;;;;;;;;;5079928;27;20696;-53
2022/08/01 06:20:21;;;;;;;5.93;5.43;;;;;;;;;;5076924;27;20249;-52
2022/08/01 06:22:51;;;;;;;4.38;4.07;;;;;;;;;;5081966;27;20230;-54
2022/08/01 06:25:17;;;;;;;4.13;3.65;;;;;;;;;;5083546;27;20311;-52
2022/08/01 06:27:43;;;;;;;4.35;4.05;;;;;;;;;;5081809;27;20257;-52
2022/08/01 06:30:10;;;;;;;4.40;3.85;;;;;;;;;;5082430;27;20242;-53
2022/08/01 06:32:37;;;;;;;3.67;3.47;;;;;;;;;;5073473;27;20230;-53
2022/08/01 06:35:03;;;;;;;3.30;3.00;;;;;;;;;;5085471;27;20230;-53
2022/08/01 06:37:29;;;;;;;2.83;2.60;;;;;;;;;;5083376;27;20234;-52
2022/08/01 06:39:57;;;;;;;3.00;2.55;;;;;;;;;;5084816;27;20235;-53
2022/08/01 06:42:24;;;;;;;3.67;3.25;;;;;;;;;;5082742;27;20242;-53
2022/08/01 06:44:50;;;;;;;3.38;3.08;;;;;;;;;;5081599;27;20591;-52
2022/08/01 06:47:16;;;;;;;3.15;2.95;;;;;;;;;;5078105;27;20482;-53
2022/08/01 06:49:43;;;;;;;2.75;2.55;;;;;;;;;;5083809;27;20233;-53
2022/08/01 06:52:09;;;;;;;3.03;2.83;;;;;;;;;;5082394;27;20241;-54
2022/08/01 06:54:35;;;;;;;2.97;2.78;;;;;;;;;;5080761;27;20241;-53
2022/08/01 06:57:05;;;;;;;2.97;2.67;;;;;;;;;;5080549;27;20266;-53
2022/08/01 06:59:31;;;;;;;2.50;2.40;;;;;;;;;;5072841;27;20238;-52
2022/08/01 07:01:57;;;;;;;2.72;2.45;;;;;;;;;;5087997;27;20652;-54
2022/08/01 07:04:24;;;;;;;2.50;2.30;;;;;;;;;;5073508;27;20230;-54
2022/08/01 07:06:50;;;;;;;2.83;2.63;;;;;;;;;;5081222;27;20579;-54
2022/08/01 07:09:16;;;;;;;3.20;2.90;;;;;;;;;;5082962;27;20309;-55
2022/08/01 07:11:43;;;;;;;2.97;2.67;;;;;;;;;;5075093;27;20239;-53
2022/08/01 07:14:10;;;;;;;4.90;2.72;;;;;;;;;;5077578;27;20242;-54
2022/08/01 07:16:37;;;;;;;2.78;2.58;;;;;;;;;;5073089;27;20226;-54
2022/08/01 07:19:03;;;;;;;2.80;2.60;;;;;;;;;;5074439;27;20227;-55
2022/08/01 07:21:29;;;;;;;3.38;3.08;;;;;;;;;;5080695;27;20822;-53
2022/08/01 07:23:56;;;;;;;3.10;2.90;;;;;;;;;;5081709;27;20250;-53
2022/08/01 07:26:22;;;;;;;3.60;2.83;;;;;;;;;;5075701;27;20240;-54
2022/08/01 07:28:48;;;;;;;3.25;3.03;;;;;;;;;;5083777;27;20226;-54
2022/08/01 07:31:16;;;;;;;3.03;2.72;;;;;;;;;;5080244;27;20235;-54
2022/08/01 07:33:46;;;;;;;3.35;3.05;;;;;;;;;;5074700;27;20317;-55
2022/08/01 07:36:12;;;;;;;2.75;2.60;;;;;;;;;;5084329;27;20234;-53
2022/08/01 07:38:38;;;;;;;2.88;2.67;;;;;;;;;;5092210;27;20227;-54
2022/08/01 07:41:05;;;;;;;3.67;2.75;;;;;;;;;;5084426;27;20237;-54
2022/08/01 07:43:31;;;;;;;2.80;2.60;;;;;;;;;;5070684;27;20238;-55
2022/08/01 07:45:57;;;;;;;4.65;2.72;;;;;;;;;;5083689;27;20726;-55
2022/08/01 07:48:25;;;;;;;5.22;3.08;;;;;;;;;;5072002;27;20223;-54
2022/08/01 07:50:52;;;;;;;4.75;3.13;;;;;;;;;;5078480;27;20280;-54
2022/08/01 07:53:18;;;;;;;2.95;2.75;;;;;;;;;;5084341;27;20320;-55
2022/08/01 07:55:44;;;;;;;3.97;3.58;;;;;;;;;;5085193;27;20777;-53
2022/08/01 07:58:11;;;;;;;3.60;3.30;;;;;;;;;;5079587;27;20323;-54
2022/08/01 08:00:37;;;;;;;3.40;3.13;;;;;;;;;;5084958;27;20230;-54
2022/08/01 08:03:04;;;;;;;3.88;3.58;;;;;;;;;;5079381;27;20742;-55
2022/08/01 08:05:32;;;;;;;5.90;3.80;;;;;;;;;;5081023;27;20227;-54
2022/08/01 08:07:59;;;;;;;4.35;4.05;;;;;;;;;;5081182;27;20310;-55
2022/08/01 08:10:25;;;;;;;4.00;3.60;;;;;;;;;;5081244;27;20239;-56
2022/08/01 08:12:51;;;;;;;4.40;3.97;;;;;;;;;;5085136;27;20309;-54
2022/08/01 08:15:18;;;;;;;4.15;3.75;;;;;;;;;;5085150;27;20226;-55
2022/08/01 08:17:44;;;;;;;3.53;3.22;;;;;;;;;;5076432;27;20238;-53
2022/08/01 08:20:11;;;;;;;4.30;3.13;;;;;;;;;;5076792;27;20230;-54
2022/08/01 08:22:39;;;;;;;3.97;3.55;;;;;;;;;;5082269;27;20601;-54
2022/08/01 08:25:06;;;;;;;3.85;3.47;;;;;;;;;;5072739;27;20238;-55
2022/08/01 08:27:32;;;;;;;3.75;3.45;;;;;;;;;;5086101;27;20286;-55
2022/08/01 08:29:59;;;;;;;4.00;3.70;;;;;;;;;;5076453;27;20728;-55
2022/08/01 08:32:25;;;;;;;3.97;3.65;;;;;;;;;;5072165;27;20738;-55
2022/08/01 08:34:51;;;;;;;4.07;3.78;;;;;;;;;;5080710;27;20712;-54
2022/08/01 08:37:18;;;;;;;3.53;3.28;;;;;;;;;;5077232;27;20227;-53
2022/08/01 08:39:45;;;;;;;3.15;2.95;;;;;;;;;;5075345;27;20277;-54
2022/08/01 08:42:12;;;;;;;4.15;3.28;;;;;;;;;;5076135;27;20234;-56
2022/08/01 08:44:39;;;;;;;3.45;2.58;;;;;;;;;;5075394;27;20223;-54
2022/08/01 08:47:06;;;;;;;2.65;2.45;;;;;;;;;;5081021;27;20234;-55
2022/08/01 08:49:32;;;;;;;2.67;2.47;;;;;;;;;;5085527;28;20671;-54
2022/08/01 08:52:00;;;;;;;2.30;2.10;;;;;;;;;;5076016;27;20242;-54
2022/08/01 08:54:27;;;;;;;2.20;2.00;;;;;;;;;;5076886;27;20227;-54
2022/08/01 08:56:55;;;;;;;1.77;1.67;;;;;;;;;;5086515;27;20245;-54
2022/08/01 08:59:23;;;;;;;2.15;1.95;;;;;;;;;;5073710;27;21013;-53
2022/08/01 09:01:50;;;;;;;2.85;1.80;;;;;;;;;;5078428;27;20695;-53
2022/08/01 09:04:17;;;;;;;1.98;1.45;;;;;;;;;;5076777;27;20455;-54
2022/08/01 09:06:43;;;;;;;1.45;1.35;;;;;;;;;;5085330;27;20237;-54
2022/08/01 09:09:10;;;;;;;1.20;1.10;;;;;;;;;;5081281;27;21699;-54
2022/08/01 09:11:37;;;;;;;1.13;1.13;;;;;;;;;;5082456;27;20246;-54
2022/08/01 09:14:09;;;;;;;1.52;1.42;;;;;;;;;;5075559;27;20235;-55
2022/08/01 09:16:37;;;;;;;2.22;2.00;;;;;;;;;;5074608;27;20242;-54
2022/08/01 09:19:10;;;;;;;2.97;1.75;;;;;;;;;;5079777;27;20238;-54
2022/08/01 09:21:37;;;;;;;5.55;2.20;;;;;;;;;;5072989;27;20241;-54
2022/08/01 09:24:05;;;;;;;2.10;1.90;;;;;;;;;;5077376;27;20235;-53
2022/08/01 09:26:33;;;;;;;1.92;1.60;;;;;;;;;;5081403;27;20231;-53
2022/08/01 09:29:02;;;;;;;6.97;2.17;;;;;;;;;;5078527;27;20773;-54
2022/08/01 09:31:39;;;;;;;4.15;2.00;;;;;;;;;;5079584;27;20238;-54
2022/08/01 09:34:07;;;;;;;2.22;2.03;;;;;;;;;;5070768;27;20238;-54
2022/08/01 09:36:44;;;;;;;3.13;2.10;;;;;;;;;;5074332;27;20222;-54
2022/08/01 09:39:13;;;;;;;2.45;2.20;;;;;;;;;;5083099;27;20233;-53
2022/08/01 09:41:39;;;;;;;2.15;2.05;;;;;;;;;;5078948;27;20231;-54
2022/08/01 09:44:06;;;;;;;2.17;2.08;;;;;;;;;;5069606;27;20743;-54
2022/08/01 09:46:34;;;;;;;3.17;2.03;;;;;;;;;;5075843;27;20231;-53
2022/08/01 09:49:01;;;;;;;3.80;2.05;;;;;;;;;;5074483;27;20330;-54
2022/08/01 09:51:31;;;;;;;2.63;2.08;;;;;;;;;;5074584;27;20484;-55
2022/08/01 09:53:58;;;;;;;1.85;1.67;;;;;;;;;;5076095;28;20238;-54
2022/08/01 09:56:25;;;;;;;1.60;1.50;;;;;;;;;;5071347;27;20230;-53
2022/08/01 09:58:52;;;;;;;2.45;2.25;;;;;;;;;;5081701;27;20238;-53
2022/08/01 10:01:20;;;;;;;3.70;2.95;;;;;;;;;;5065666;27;20236;-54
2022/08/01 10:04:04;;;;;;;1.92;1.83;;;;;;;;;;5079554;27;20704;-53
2022/08/01 10:06:30;;;;;;;2.65;1.98;;;;;;;;;;5074678;27;20632;-58
2022/08/01 10:08:56;;;;;;;2.28;2.08;;;;;;;;;;5076283;27;20230;-54
2022/08/01 10:11:23;;;;;;;3.13;1.77;;;;;;;;;;5075074;27;20591;-54
2022/08/01 10:13:49;;;;;;;1.80;1.70;;;;;;;;;;5073428;27;20226;-53
2022/08/01 10:16:16;;;;;;;2.00;1.85;;;;;;;;;;5078446;27;20242;-53
2022/08/01 10:18:43;;;;;;;1.85;1.75;;;;;;;;;;5082126;27;20223;-53
2022/08/01 10:21:12;;;;;;;2.13;1.60;;;;;;;;;;5075733;27;20238;-53
2022/08/01 10:23:38;;;;;;;2.55;2.20;;;;;;;;;;5075803;27;20231;-53
2022/08/01 10:26:05;;;;;;;4.38;1.65;;;;;;;;;;5072379;27;20716;-54
2022/08/01 10:28:32;;;;;;;1.70;1.50;;;;;;;;;;5070878;27;20227;-53
2022/08/01 10:30:58;;;;;;;1.50;1.40;;;;;;;;;;5075225;27;20307;-53
2022/08/01 10:33:25;;;;;;;1.60;1.50;;;;;;;;;;5077394;27;20233;-53
2022/08/01 10:35:52;;;;;;;1.85;1.65;;;;;;;;;;5072301;27;20233;-53
2022/08/01 10:38:19;;;;;;;1.40;1.30;;;;;;;;;;5069724;27;20238;-54
2022/08/01 10:40:45;;;;;;;1.35;1.30;;;;;;;;;;5082253;27;20230;-53
2022/08/01 10:43:14;;;;;;;1.25;1.25;;;;;;;;;;5079594;27;20600;-53
2022/08/01 10:45:40;;;;;;;1.30;1.20;;;;;;;;;;5075456;27;21019;-53
2022/08/01 10:48:13;;;;;;;1.42;1.33;;;;;;;;;;5075227;27;20238;-53
2022/08/01 10:50:41;;;;;;;1.13;1.02;;;;;;;;;;5079330;27;20238;-53
2022/08/01 10:53:08;;;;;;;1.40;1.30;;;;;;;;;;5083797;27;20235;-54
2022/08/01 10:55:46;;;;;;;3.25;1.23;;;;;;;;;;5077109;27;20712;-53
2022/08/01 10:58:13;;;;;;;0.85;0.85;;;;;;;;;;5085212;27;20244;-54
2022/08/01 11:00:39;;;;;;;1.38;1.25;;;;;;;;;;5072114;28;20231;-54
2022/08/01 11:03:06;;;;;;;1.98;1.10;;;;;;;;;;5080869;27;20231;-54
2022/08/01 11:05:32;;;;;;;1.20;1.20;;;;;;;;;;5074704;27;20233;-53
2022/08/01 11:08:01;;;;;;;0.80;0.80;;;;;;;;;;5081120;27;20241;-54
2022/08/01 11:10:39;;;;;;;0.95;0.90;;;;;;;;;;5078377;27;20237;-53
2022/08/01 11:13:08;;;;;;;1.15;0.98;;;;;;;;;;5078215;27;20292;-52
2022/08/01 11:15:34;;;;;;;0.80;0.80;;;;;;;;;;5079760;27;20656;-52
2022/08/01 11:18:02;;;;;;;1.85;1.20;;;;;;;;;;5085505;27;20255;-54
2022/08/01 11:20:30;;;;;;;1.17;1.08;;;;;;;;;;5073787;27;20764;-53
2022/08/01 11:23:28;;;;;;;1.45;1.35;;;;;;;;;;5080542;27;20265;-53
2022/08/01 11:26:12;;;;;;;0.90;0.90;;;;;;;;;;5083948;27;20280;-53
2022/08/01 11:28:41;;;;;;;1.45;1.35;;;;;;;;;;5074786;27;20222;-52
2022/08/01 11:31:27;;;;;;;1.73;1.15;;;;;;;;;;5082129;27;20863;-54
2022/08/01 11:33:54;;;;;;;1.23;1.15;;;;;;;;;;5076254;27;20314;-53
2022/08/01 11:36:21;;;;;;;1.02;1.00;;;;;;;;;;5080145;27;20762;-53
2022/08/01 11:38:48;;;;;;;1.48;1.38;;;;;;;;;;5080011;27;20234;-53
2022/08/01 11:41:16;;;;;;;1.75;1.52;;;;;;;;;;5076230;27;20234;-53
2022/08/01 11:43:57;;;;;;;1.30;1.20;;;;;;;;;;5083945;27;20655;-53
2022/08/01 11:46:42;;;;;;;2.38;1.35;;;;;;;;;;5091335;27;20233;-53
2022/08/01 11:49:28;;;;;;;2.38;1.33;;;;;;;;;;5076173;27;20707;-54
2022/08/01 11:51:59;;;;;;;1.30;1.20;;;;;;;;;;5075422;27;20318;-51
2022/08/01 11:54:26;;;;;;;2.08;1.80;;;;;;;;;;5074432;27;20226;-52
2022/08/01 11:56:54;;;;;;;1.42;1.10;;;;;;;;;;5049728;28;20231;-53
2022/08/01 11:59:22;;;;;;;2.72;1.70;;;;;;;;;;5075168;27;20265;-53
2022/08/01 12:01:48;;;;;;;0.90;0.90;;;;;;;;;;5084083;27;20372;-53
2022/08/01 12:04:15;;;;;;;2.05;1.30;;;;;;;;;;5085770;27;20234;-51
2022/08/01 12:06:41;;;;;;;1.08;1.02;;;;;;;;;;5073567;27;20227;-54
2022/08/01 12:09:18;;;;;;;1.70;1.00;;;;;;;;;;5080592;27;20573;-54
2022/08/01 12:11:44;;;;;;;0.68;0.68;;;;;;;;;;5066439;27;20234;-54
2022/08/01 12:14:16;;;;;;;1.08;0.98;;;;;;;;;;5085300;27;20270;-53
2022/08/01 12:16:50;;;;;;;0.90;0.90;;;;;;;;;;5072397;27;20231;-52
2022/08/01 12:19:19;;;;;;;0.93;0.93;;;;;;;;;;5074311;27;20231;-52
2022/08/01 12:21:45;;;;;;;1.08;0.98;;;;;;;;;;5073201;27;20607;-53
2022/08/01 12:24:11;;;;;;;1.65;0.70;;;;;;;;;;5084016;27;20306;-52
2022/08/01 12:26:41;;;;;;;1.00;1.00;;;;;;;;;;5071286;28;20572;-52
2022/08/01 12:29:07;;;;;;;1.08;0.98;;;;;;;;;;5073830;27;20235;-52
2022/08/01 12:31:34;;;;;;;1.00;1.00;;;;;;;;;;5075615;27;20233;-53
2022/08/01 12:34:15;;;;;;;0.85;0.85;;;;;;;;;;5086270;27;20245;-52
2022/08/01 12:36:43;;;;;;;2.17;1.05;;;;;;;;;;5075793;27;20222;-53
2022/08/01 12:39:09;;;;;;;1.05;0.95;;;;;;;;;;5074824;27;20227;-53
2022/08/01 12:41:36;;;;;;;1.00;0.90;;;;;;;;;;5085286;27;20237;-54
2022/08/01 12:44:02;;;;;;;1.65;1.15;;;;;;;;;;5084750;27;20309;-54
2022/08/01 12:46:29;;;;;;;1.85;0.98;;;;;;;;;;5073345;27;20731;-52
2022/08/01 12:48:55;;;;;;;1.05;1.00;;;;;;;;;;5086036;27;20714;-52
2022/08/01 12:51:22;;;;;;;0.95;0.95;;;;;;;;;;5079544;27;20854;-52
2022/08/01 12:53:49;;;;;;;1.00;1.00;;;;;;;;;;5075231;27;20242;-54
2022/08/01 12:56:16;;;;;;;1.17;1.00;;;;;;;;;;5082943;27;20238;-53
2022/08/01 12:58:42;;;;;;;2.15;1.08;;;;;;;;;;5073897;27;20230;-52
2022/08/01 13:01:09;;;;;;;0.75;0.75;;;;;;;;;;5080252;27;20800;-52
2022/08/01 13:03:36;;;;;;;0.80;0.80;;;;;;;;;;5072495;27;20233;-52
2022/08/01 13:06:10;;;;;;;1.30;1.20;;;;;;;;;;5085765;27;20284;-52
2022/08/01 13:08:38;;;;;;;1.00;1.00;;;;;;;;;;5075423;27;20229;-53
2022/08/01 13:11:08;;;;;;;1.23;1.23;;;;;;;;;;5079727;27;20240;-51
2022/08/01 13:13:39;;;;;;;2.05;1.38;;;;;;;;;;5074444;27;20250;-52
2022/08/01 13:16:06;;;;;;;5.25;1.40;;;;;;;;;;5086749;27;20238;-53
2022/08/01 13:18:33;;;;;;;1.15;0.98;;;;;;;;;;5081871;27;20223;-52
2022/08/01 13:21:10;;;;;;;1.95;1.42;;;;;;;;;;5070332;27;20230;-52
2022/08/01 13:23:36;;;;;;;2.00;1.05;;;;;;;;;;5076427;27;20236;-51
2022/08/01 13:26:03;;;;;;;1.00;1.00;;;;;;;;;;5079139;27;20226;-52
2022/08/01 13:28:31;;;;;;;1.27;1.20;;;;;;;;;;5075982;27;20230;-52
2022/08/01 13:30:59;;;;;;;1.27;0.90;;;;;;;;;;5072726;27;20288;-53
2022/08/01 13:33:26;;;;;;;0.95;0.95;;;;;;;;;;5082807;27;20234;-54
2022/08/01 13:35:53;;;;;;;1.00;0.90;;;;;;;;;;5078504;27;20226;-53
2022/08/01 13:38:19;;;;;;;0.90;0.90;;;;;;;;;;5084746;27;20227;-52
2022/08/01 13:40:45;;;;;;;1.45;1.00;;;;;;;;;;5074987;27;20235;-54
2022/08/01 13:43:11;;;;;;;0.85;0.70;;;;;;;;;;5082102;27;21056;-52
2022/08/01 13:45:39;;;;;;;1.17;1.02;;;;;;;;;;5078997;27;20242;-53
2022/08/01 13:48:06;;;;;;;0.93;0.93;;;;;;;;;;5069975;27;20239;-52
2022/08/01 13:50:32;;;;;;;0.90;0.90;;;;;;;;;;5073942;27;20272;-53
2022/08/01 13:52:58;;;;;;;0.82;0.82;;;;;;;;;;5082117;27;20775;-54
2022/08/01 13:55:25;;;;;;;1.30;0.85;;;;;;;;;;5076843;27;20719;-54
2022/08/01 13:57:51;;;;;;;1.23;1.00;;;;;;;;;;5080137;27;20330;-52
2022/08/01 14:00:17;;;;;;;2.05;1.10;;;;;;;;;;5074057;28;20250;-53
2022/08/01 14:02:45;;;;;;;0.85;0.75;;;;;;;;;;5074236;27;20728;-51
2022/08/01 14:05:11;;;;;;;0.60;0.60;;;;;;;;;;5074277;27;20226;-52
2022/08/01 14:07:38;;;;;;;2.45;1.05;;;;;;;;;;5077891;27;20238;-53
2022/08/01 14:10:04;;;;;;;0.52;0.52;;;;;;;;;;5077311;27;20330;-53
2022/08/01 14:12:31;;;;;;;2.15;0.80;;;;;;;;;;5081031;27;20235;-53
2022/08/01 14:14:57;;;;;;;3.08;0.60;;;;;;;;;;5071550;27;20567;-54
2022/08/01 14:17:23;;;;;;;1.20;0.70;;;;;;;;;;5081289;27;20645;-54
2022/08/01 14:19:51;;;;;;;1.23;0.47;;;;;;;;;;5067354;27;20235;-53
2022/08/01 14:22:17;;;;;;;0.40;0.40;;;;;;;;;;5077274;27;20234;-52
2022/08/01 14:24:44;;;;;;;0.57;0.57;;;;;;;;;;5076044;27;20223;-53
2022/08/01 14:27:10;;;;;;;0.85;0.52;;;;;;;;;;5069994;27;20716;-53
2022/08/01 14:29:36;;;;;;;0.70;0.70;;;;;;;;;;5079437;27;20234;-53
2022/08/01 14:32:03;;;;;;;0.85;0.52;;;;;;;;;;5091560;27;20726;-52
2022/08/01 14:34:29;;;;;;;0.80;0.80;;;;;;;;;;5089077;27;20234;-53
2022/08/01 14:36:57;;;;;;;0.63;0.60;;;;;;;;;;5085769;27;20242;-53
2022/08/01 14:39:23;;;;;;;0.50;0.50;;;;;;;;;;5088283;27;20226;-52
2022/08/01 14:41:50;;;;;;;0.77;0.77;;;;;;;;;;5090163;27;20263;-53
2022/08/01 14:44:16;;;;;;;0.85;0.47;;;;;;;;;;5083954;27;20715;-52
2022/08/01 14:46:44;;;;;;;0.85;0.82;;;;;;;;;;5091278;27;20230;-53